ISABELLA DAM (ISB)

Elevation: 2635' · KERN R basin · Operator: US Army Corps of Engineers

Provisional data, subject to change.
Query executed Friday at 10:49:43   clock

Select a sensor type for a plot of data.
Note: Reservoir Flows are daily averages.

Earlier

Date RES ELE    STORAGE    RES CHG    TOC STO    ABV TOC    OUTFLOW    INFLOW    FNF    PPT INC    PPTINC4    TEMP MN    TEMP MX    WINDLEN    EVP PAN   
 FEET   AF   AF   AF   AF   CFS   CFS   CFS   INCHES   INCHES   DEG F   DEG F   MILES   INCHES  
03/30/2016 2535.41 60270 495 361250 -300980 327 589 589 0.00 0.00 2 15 188 0.15
03/31/2016 2535.54 60651 381 361250 -300599 327 535 535 0.00 0.00 1 18 222 0.19
04/01/2016 2535.65 60974 323 361250 -300276 327 509 509 0.03 0.00 5 23 207 0.23
04/02/2016 2535.78 61358 384 361250 -299892 327 543 543 0.04 0.00 7 27 170 0.27
04/03/2016 2535.93 61803 445 361250 -299447 327 572 572 0.00 0.00 8 25 166 0.25
04/04/2016 2536.11 62341 538 361250 -298909 327 620 620 0.00 0.00 11 22 314 0.26
04/05/2016 2536.33 63002 661 361250 -298248 327 683 683 0.03 0.00 9 27 177 0.27
04/06/2016 2536.57 63730 728 361250 -297520 327 720 720 0.04 0.00 10 31 192 0.30
04/07/2016 2536.85 64586 856 361250 -296664 327 779 779 0.00 0.00 12 25 181 0.23
04/08/2016 2537.16 65543 957 361250 -295707 327 818 818 0.16 0.00 12 18 164 0.10
04/09/2016 2537.52 66669 1126 361250 -294581 329 913 913 0.01 0.11 10 19 255 0.19
04/10/2016 2537.88 67807 1138 361250 -293443 328 917 917 0.04 0.09 9 18 300 0.17
04/11/2016 2538.20 68832 1025 361250 -292418 310 846 846 0.00 0.04 10 20 270 0.21
04/12/2016 2538.48 69737 905 361250 -291513 310 785 785 0.00 0.00 9 20 274 0.20
04/13/2016 2538.74 70585 848 361250 -290665 326 771 771 0.00 0.00 13 17 454 0.20
04/14/2016 2538.98 71375 790 361250 -289875 327 748 748 0.01 0.00 10 17 373 0.24
04/15/2016 2539.31 72471 1096 361250 -288779 327 901 901 0.00 0.00 7 16 428 0.23
04/16/2016 2539.57 73343 872 361250 -287907 327 793 793 0.04 0.00 4 24 208 0.28
04/17/2016 2539.82 74189 846 361250 -287061 328 786 786 0.05 0.00 8 28 200 0.33
04/18/2016 2540.08 75075 886 361250 -286175 326 804 804 0.01 0.00 9 29 179 0.32
04/19/2016 2540.38 76108 1033 361250 -285142 325 876 876 0.00 0.00 10 29 163 0.31
04/20/2016 2540.74 77361 1253 361250 -283889 325 988 988 0.00 0.00 10 28 195 0.32
04/21/2016 2541.13 78734 1373 361250 -282516 325 1051 1051 0.03 0.00 9 29 202 0.34
04/22/2016 2541.53 80161 1427 361250 -281089 325 1074 1074 0.00 0.00 10 22 358 0.29
04/23/2016 2541.95 81679 1518 361250 -279571 326 1117 1117 0.00 0.00 8 18 420 0.25
04/24/2016 2542.30 82960 -- 361250 -278290 325 990 990 0.20 0.00 7 18 288 0.18
04/25/2016 2542.65 84254 1294 361250 -276996 325 994 994 0.05 0.17 5 13 382 0.16
04/26/2016 2542.92 85263 1009 361250 -275987 323 857 857 0.00 0.03 6 18 331 0.24
04/27/2016 2543.12 86016 753 361250 -275234 353 761 761 0.00 0.00 9 18 401 0.27
04/28/2016 2543.32 86773 757 361250 -274477 375 778 778 0.01 0.00 7 15 438 0.19
04/29/2016 -- -- -- -- -- -- -- -- -- 0.00 -- -- -- --

Later | Latest

Warning! This data is preliminary and subject to revision.

Show ISB Map | Plot ISB Data | 1 Month ISB Data | Real-Time ISB Data | ISB Info